sensor_id;sensor_type;location;lat;lon;timestamp;temperature;humidity
43679;DHT22;29279;50.858;4.392;2023-05-02T00:00:26;14.40;99.90
43679;DHT22;29279;50.858;4.392;2023-05-02T00:02:52;14.50;99.90
43679;DHT22;29279;50.858;4.392;2023-05-02T00:05:18;14.60;99.90
43679;DHT22;29279;50.858;4.392;2023-05-02T00:07:43;14.70;99.90
43679;DHT22;29279;50.858;4.392;2023-05-02T00:10:09;14.70;99.90
43679;DHT22;29279;50.858;4.392;2023-05-02T00:12:35;14.60;99.90
43679;DHT22;29279;50.858;4.392;2023-05-02T00:15:01;14.70;99.90
43679;DHT22;29279;50.858;4.392;2023-05-02T00:17:26;14.70;99.90
43679;DHT22;29279;50.858;4.392;2023-05-02T00:19:52;14.70;99.90
43679;DHT22;29279;50.858;4.392;2023-05-02T00:22:18;14.80;99.90
43679;DHT22;29279;50.858;4.392;2023-05-02T00:24:44;14.70;99.90
43679;DHT22;29279;50.858;4.392;2023-05-02T00:27:09;14.80;99.90
43679;DHT22;29279;50.858;4.392;2023-05-02T00:29:35;14.70;99.90
43679;DHT22;29279;50.858;4.392;2023-05-02T00:32:01;14.70;99.90
43679;DHT22;29279;50.858;4.392;2023-05-02T00:34:30;14.70;99.90
43679;DHT22;29279;50.858;4.392;2023-05-02T00:36:56;14.70;99.90
43679;DHT22;29279;50.858;4.392;2023-05-02T00:39:22;14.80;99.90
43679;DHT22;29279;50.858;4.392;2023-05-02T00:41:48;14.80;99.90
43679;DHT22;29279;50.858;4.392;2023-05-02T00:44:14;14.80;99.90
43679;DHT22;29279;50.858;4.392;2023-05-02T00:46:41;14.80;99.90
43679;DHT22;29279;50.858;4.392;2023-05-02T00:49:07;14.70;99.90
43679;DHT22;29279;50.858;4.392;2023-05-02T00:51:32;14.70;99.90
43679;DHT22;29279;50.858;4.392;2023-05-02T00:54:00;14.60;99.90
43679;DHT22;29279;50.858;4.392;2023-05-02T00:56:26;14.70;99.90
43679;DHT22;29279;50.858;4.392;2023-05-02T00:58:52;14.70;99.90
43679;DHT22;29279;50.858;4.392;2023-05-02T01:12:09;14.80;99.90
43679;DHT22;29279;50.858;4.392;2023-05-02T01:14:44;14.70;99.90
43679;DHT22;29279;50.858;4.392;2023-05-02T01:17:13;14.60;99.90
43679;DHT22;29279;50.858;4.392;2023-05-02T01:19:49;14.60;99.90
43679;DHT22;29279;50.858;4.392;2023-05-02T01:22:17;14.50;99.90
43679;DHT22;29279;50.858;4.392;2023-05-02T01:30:19;14.50;99.90
43679;DHT22;29279;50.858;4.392;2023-05-02T01:32:46;14.50;99.90
43679;DHT22;29279;50.858;4.392;2023-05-02T01:35:17;14.40;99.90
43679;DHT22;29279;50.858;4.392;2023-05-02T01:37:44;14.40;99.90
43679;DHT22;29279;50.858;4.392;2023-05-02T01:40:14;14.40;99.90
43679;DHT22;29279;50.858;4.392;2023-05-02T01:42:41;14.40;99.90
43679;DHT22;29279;50.858;4.392;2023-05-02T01:45:09;14.40;99.90
43679;DHT22;29279;50.858;4.392;2023-05-02T01:47:35;14.40;99.90
43679;DHT22;29279;50.858;4.392;2023-05-02T01:50:07;14.40;99.90
43679;DHT22;29279;50.858;4.392;2023-05-02T01:52:34;14.50;99.90
43679;DHT22;29279;50.858;4.392;2023-05-02T01:55:03;14.50;99.90
43679;DHT22;29279;50.858;4.392;2023-05-02T01:57:31;14.40;99.90
43679;DHT22;29279;50.858;4.392;2023-05-02T01:59:57;14.30;99.90
43679;DHT22;29279;50.858;4.392;2023-05-02T02:02:26;14.40;99.90
43679;DHT22;29279;50.858;4.392;2023-05-02T02:04:55;14.30;99.90
43679;DHT22;29279;50.858;4.392;2023-05-02T02:07:22;14.30;99.90
43679;DHT22;29279;50.858;4.392;2023-05-02T02:09:48;14.30;99.90
43679;DHT22;29279;50.858;4.392;2023-05-02T02:12:37;14.30;99.90
43679;DHT22;29279;50.858;4.392;2023-05-02T02:15:27;14.30;99.90
43679;DHT22;29279;50.858;4.392;2023-05-02T02:18:04;14.30;99.90
43679;DHT22;29279;50.858;4.392;2023-05-02T02:20:31;14.20;99.90
43679;DHT22;29279;50.858;4.392;2023-05-02T02:23:00;14.20;99.90
43679;DHT22;29279;50.858;4.392;2023-05-02T02:25:27;14.20;99.90
43679;DHT22;29279;50.858;4.392;2023-05-02T02:27:54;14.20;99.90
43679;DHT22;29279;50.858;4.392;2023-05-02T02:30:20;14.10;99.90
43679;DHT22;29279;50.858;4.392;2023-05-02T02:32:46;14.00;99.90
43679;DHT22;29279;50.858;4.392;2023-05-02T02:35:12;14.10;99.90
43679;DHT22;29279;50.858;4.392;2023-05-02T02:38:01;14.10;99.90
43679;DHT22;29279;50.858;4.392;2023-05-02T02:40:37;14.10;99.90
43679;DHT22;29279;50.858;4.392;2023-05-02T02:43:17;14.10;99.90
43679;DHT22;29279;50.858;4.392;2023-05-02T02:45:58;14.10;99.90
43679;DHT22;29279;50.858;4.392;2023-05-02T02:56:19;14.00;99.90
43679;DHT22;29279;50.858;4.392;2023-05-02T03:01:39;14.00;99.90
43679;DHT22;29279;50.858;4.392;2023-05-02T03:04:07;14.00;99.90
43679;DHT22;29279;50.858;4.392;2023-05-02T03:06:34;14.00;99.90
43679;DHT22;29279;50.858;4.392;2023-05-02T03:09:00;14.00;99.90
43679;DHT22;29279;50.858;4.392;2023-05-02T03:11:26;14.00;99.90
43679;DHT22;29279;50.858;4.392;2023-05-02T03:13:52;14.00;99.90
43679;DHT22;29279;50.858;4.392;2023-05-02T03:16:36;14.10;99.90
43679;DHT22;29279;50.858;4.392;2023-05-02T03:19:02;14.10;99.90
43679;DHT22;29279;50.858;4.392;2023-05-02T03:21:29;14.10;99.90
43679;DHT22;29279;50.858;4.392;2023-05-02T03:24:00;14.10;99.90
43679;DHT22;29279;50.858;4.392;2023-05-02T03:26:27;14.00;99.90
43679;DHT22;29279;50.858;4.392;2023-05-02T03:28:53;14.00;99.90
43679;DHT22;29279;50.858;4.392;2023-05-02T03:31:19;13.90;99.90
43679;DHT22;29279;50.858;4.392;2023-05-02T03:33:46;13.80;99.90
43679;DHT22;29279;50.858;4.392;2023-05-02T03:36:12;13.60;99.90
43679;DHT22;29279;50.858;4.392;2023-05-02T03:38:38;13.60;99.90
43679;DHT22;29279;50.858;4.392;2023-05-02T03:41:03;13.50;99.90
43679;DHT22;29279;50.858;4.392;2023-05-02T03:43:29;13.50;99.90
43679;DHT22;29279;50.858;4.392;2023-05-02T03:45:55;13.40;99.90
43679;DHT22;29279;50.858;4.392;2023-05-02T03:48:21;13.50;99.90
43679;DHT22;29279;50.858;4.392;2023-05-02T03:50:47;13.50;99.90
43679;DHT22;29279;50.858;4.392;2023-05-02T03:53:13;13.50;99.90
43679;DHT22;29279;50.858;4.392;2023-05-02T03:55:41;13.50;99.90
43679;DHT22;29279;50.858;4.392;2023-05-02T03:58:07;13.40;99.90
43679;DHT22;29279;50.858;4.392;2023-05-02T04:00:33;13.40;99.90
43679;DHT22;29279;50.858;4.392;2023-05-02T04:03:02;13.40;99.90
43679;DHT22;29279;50.858;4.392;2023-05-02T04:05:28;13.40;99.90
43679;DHT22;29279;50.858;4.392;2023-05-02T04:07:55;13.40;99.90
43679;DHT22;29279;50.858;4.392;2023-05-02T04:10:21;13.30;99.90
43679;DHT22;29279;50.858;4.392;2023-05-02T04:12:46;13.30;99.90
43679;DHT22;29279;50.858;4.392;2023-05-02T04:15:12;13.30;99.90
43679;DHT22;29279;50.858;4.392;2023-05-02T04:17:38;13.30;99.90
43679;DHT22;29279;50.858;4.392;2023-05-02T04:20:04;13.30;99.90
43679;DHT22;29279;50.858;4.392;2023-05-02T04:22:31;13.30;99.90
43679;DHT22;29279;50.858;4.392;2023-05-02T04:24:57;13.30;99.90
43679;DHT22;29279;50.858;4.392;2023-05-02T04:27:23;13.30;99.90
43679;DHT22;29279;50.858;4.392;2023-05-02T04:29:50;13.30;99.90
43679;DHT22;29279;50.858;4.392;2023-05-02T04:32:16;13.30;99.90
43679;DHT22;29279;50.858;4.392;2023-05-02T04:34:41;13.30;99.90
43679;DHT22;29279;50.858;4.392;2023-05-02T04:37:07;13.30;99.90
43679;DHT22;29279;50.858;4.392;2023-05-02T04:39:33;13.20;99.90
43679;DHT22;29279;50.858;4.392;2023-05-02T04:41:59;13.20;99.90
43679;DHT22;29279;50.858;4.392;2023-05-02T04:44:26;13.20;99.90
43679;DHT22;29279;50.858;4.392;2023-05-02T04:46:52;13.30;99.90
43679;DHT22;29279;50.858;4.392;2023-05-02T04:49:18;13.30;99.90
43679;DHT22;29279;50.858;4.392;2023-05-02T04:51:44;13.30;99.90
43679;DHT22;29279;50.858;4.392;2023-05-02T04:54:10;13.30;99.90
43679;DHT22;29279;50.858;4.392;2023-05-02T04:56:36;13.40;99.90
43679;DHT22;29279;50.858;4.392;2023-05-02T04:59:01;13.50;99.90
43679;DHT22;29279;50.858;4.392;2023-05-02T05:01:27;13.50;99.90
43679;DHT22;29279;50.858;4.392;2023-05-02T05:03:53;13.60;99.90
43679;DHT22;29279;50.858;4.392;2023-05-02T05:06:19;13.60;99.90
43679;DHT22;29279;50.858;4.392;2023-05-02T05:08:45;13.70;99.90
43679;DHT22;29279;50.858;4.392;2023-05-02T05:11:11;13.70;99.90
43679;DHT22;29279;50.858;4.392;2023-05-02T05:13:37;13.80;99.90
43679;DHT22;29279;50.858;4.392;2023-05-02T05:16:03;13.70;99.90
43679;DHT22;29279;50.858;4.392;2023-05-02T05:18:29;13.80;99.90
43679;DHT22;29279;50.858;4.392;2023-05-02T05:20:56;13.80;99.90
43679;DHT22;29279;50.858;4.392;2023-05-02T05:23:21;13.90;99.90
43679;DHT22;29279;50.858;4.392;2023-05-02T05:25:47;13.90;99.90
43679;DHT22;29279;50.858;4.392;2023-05-02T05:28:13;13.90;99.90
43679;DHT22;29279;50.858;4.392;2023-05-02T05:30:38;13.90;99.90
43679;DHT22;29279;50.858;4.392;2023-05-02T05:33:04;13.90;99.90
43679;DHT22;29279;50.858;4.392;2023-05-02T05:35:30;13.90;99.90
43679;DHT22;29279;50.858;4.392;2023-05-02T05:37:57;13.90;99.90
43679;DHT22;29279;50.858;4.392;2023-05-02T05:40:23;13.80;99.90
43679;DHT22;29279;50.858;4.392;2023-05-02T05:42:48;13.90;99.90
43679;DHT22;29279;50.858;4.392;2023-05-02T05:45:14;14.00;99.90
43679;DHT22;29279;50.858;4.392;2023-05-02T05:47:41;14.00;99.90
43679;DHT22;29279;50.858;4.392;2023-05-02T05:50:08;14.00;99.90
43679;DHT22;29279;50.858;4.392;2023-05-02T05:52:34;14.00;99.90
43679;DHT22;29279;50.858;4.392;2023-05-02T05:54:59;14.00;99.90
43679;DHT22;29279;50.858;4.392;2023-05-02T05:57:25;14.00;99.90
43679;DHT22;29279;50.858;4.392;2023-05-02T05:59:51;13.80;99.90
43679;DHT22;29279;50.858;4.392;2023-05-02T06:02:17;13.70;99.90
43679;DHT22;29279;50.858;4.392;2023-05-02T06:04:44;13.70;99.90
43679;DHT22;29279;50.858;4.392;2023-05-02T06:07:10;13.80;99.90
43679;DHT22;29279;50.858;4.392;2023-05-02T06:09:36;13.90;99.90
43679;DHT22;29279;50.858;4.392;2023-05-02T06:12:02;13.90;99.90
43679;DHT22;29279;50.858;4.392;2023-05-02T06:14:27;14.00;99.90
43679;DHT22;29279;50.858;4.392;2023-05-02T06:16:53;13.90;99.90
43679;DHT22;29279;50.858;4.392;2023-05-02T06:19:18;13.90;99.90
43679;DHT22;29279;50.858;4.392;2023-05-02T06:21:44;13.90;99.90
43679;DHT22;29279;50.858;4.392;2023-05-02T06:24:10;13.90;99.90
43679;DHT22;29279;50.858;4.392;2023-05-02T06:26:35;13.80;99.90
43679;DHT22;29279;50.858;4.392;2023-05-02T06:29:01;13.80;99.90
43679;DHT22;29279;50.858;4.392;2023-05-02T06:31:28;13.90;99.90
43679;DHT22;29279;50.858;4.392;2023-05-02T06:33:53;13.90;99.90
43679;DHT22;29279;50.858;4.392;2023-05-02T06:36:20;14.00;99.90
43679;DHT22;29279;50.858;4.392;2023-05-02T06:38:46;14.10;99.90
43679;DHT22;29279;50.858;4.392;2023-05-02T06:41:12;14.10;99.90
43679;DHT22;29279;50.858;4.392;2023-05-02T06:43:39;14.10;99.90
43679;DHT22;29279;50.858;4.392;2023-05-02T06:46:05;14.20;99.90
43679;DHT22;29279;50.858;4.392;2023-05-02T06:48:30;14.20;99.90
43679;DHT22;29279;50.858;4.392;2023-05-02T06:50:56;14.40;99.90
43679;DHT22;29279;50.858;4.392;2023-05-02T06:53:22;14.50;99.90
43679;DHT22;29279;50.858;4.392;2023-05-02T06:55:48;14.40;99.90
43679;DHT22;29279;50.858;4.392;2023-05-02T06:58:14;14.50;99.90
43679;DHT22;29279;50.858;4.392;2023-05-02T07:00:39;14.60;99.90
43679;DHT22;29279;50.858;4.392;2023-05-02T07:03:05;14.70;99.90
43679;DHT22;29279;50.858;4.392;2023-05-02T07:05:34;14.80;99.90
43679;DHT22;29279;50.858;4.392;2023-05-02T07:08:00;14.90;99.90
43679;DHT22;29279;50.858;4.392;2023-05-02T07:10:26;15.00;99.90
43679;DHT22;29279;50.858;4.392;2023-05-02T07:12:51;15.10;99.90
43679;DHT22;29279;50.858;4.392;2023-05-02T07:15:17;15.10;99.90
43679;DHT22;29279;50.858;4.392;2023-05-02T07:17:43;15.20;99.90
43679;DHT22;29279;50.858;4.392;2023-05-02T07:20:09;15.30;99.90
43679;DHT22;29279;50.858;4.392;2023-05-02T07:22:35;15.40;99.90
43679;DHT22;29279;50.858;4.392;2023-05-02T07:25:01;15.30;99.90
43679;DHT22;29279;50.858;4.392;2023-05-02T07:27:27;15.30;99.90
43679;DHT22;29279;50.858;4.392;2023-05-02T07:29:53;15.40;99.90
43679;DHT22;29279;50.858;4.392;2023-05-02T07:32:19;15.40;99.90
43679;DHT22;29279;50.858;4.392;2023-05-02T07:34:50;15.50;99.90
43679;DHT22;29279;50.858;4.392;2023-05-02T07:37:18;15.70;99.90
43679;DHT22;29279;50.858;4.392;2023-05-02T07:39:44;15.80;99.90
43679;DHT22;29279;50.858;4.392;2023-05-02T07:42:10;15.90;99.90
43679;DHT22;29279;50.858;4.392;2023-05-02T07:44:35;16.10;99.90
43679;DHT22;29279;50.858;4.392;2023-05-02T07:47:01;16.20;99.90
43679;DHT22;29279;50.858;4.392;2023-05-02T07:49:27;16.40;99.90
43679;DHT22;29279;50.858;4.392;2023-05-02T07:51:53;16.50;99.90
43679;DHT22;29279;50.858;4.392;2023-05-02T07:54:19;16.60;99.90
43679;DHT22;29279;50.858;4.392;2023-05-02T07:56:45;16.60;99.90
43679;DHT22;29279;50.858;4.392;2023-05-02T07:59:12;16.90;99.90
43679;DHT22;29279;50.858;4.392;2023-05-02T08:01:39;16.90;99.90
43679;DHT22;29279;50.858;4.392;2023-05-02T08:04:05;16.90;99.90
43679;DHT22;29279;50.858;4.392;2023-05-02T08:06:30;16.90;99.90
43679;DHT22;29279;50.858;4.392;2023-05-02T08:08:58;16.90;99.90
43679;DHT22;29279;50.858;4.392;2023-05-02T08:11:24;17.00;99.90
43679;DHT22;29279;50.858;4.392;2023-05-02T08:13:53;17.20;99.90
43679;DHT22;29279;50.858;4.392;2023-05-02T08:16:20;17.10;99.90
43679;DHT22;29279;50.858;4.392;2023-05-02T08:18:45;17.20;99.90
43679;DHT22;29279;50.858;4.392;2023-05-02T08:21:11;17.30;99.90
43679;DHT22;29279;50.858;4.392;2023-05-02T08:23:39;17.50;99.40
43679;DHT22;29279;50.858;4.392;2023-05-02T08:26:05;17.50;99.10
43679;DHT22;29279;50.858;4.392;2023-05-02T08:28:30;17.70;99.00
43679;DHT22;29279;50.858;4.392;2023-05-02T08:30:56;18.00;98.20
43679;DHT22;29279;50.858;4.392;2023-05-02T08:33:22;18.10;98.30
43679;DHT22;29279;50.858;4.392;2023-05-02T08:35:48;18.20;98.10
43679;DHT22;29279;50.858;4.392;2023-05-02T08:38:14;18.10;97.40
43679;DHT22;29279;50.858;4.392;2023-05-02T08:40:39;17.90;97.50
43679;DHT22;29279;50.858;4.392;2023-05-02T08:43:05;17.70;97.50
43679;DHT22;29279;50.858;4.392;2023-05-02T08:45:38;17.80;97.70
43679;DHT22;29279;50.858;4.392;2023-05-02T08:48:06;18.00;97.40
43679;DHT22;29279;50.858;4.392;2023-05-02T08:50:44;18.10;97.30
43679;DHT22;29279;50.858;4.392;2023-05-02T08:53:11;18.00;97.30
43679;DHT22;29279;50.858;4.392;2023-05-02T08:55:40;18.10;97.20
43679;DHT22;29279;50.858;4.392;2023-05-02T08:58:09;18.10;97.30
43679;DHT22;29279;50.858;4.392;2023-05-02T09:00:40;18.30;97.10
43679;DHT22;29279;50.858;4.392;2023-05-02T09:05:39;18.90;96.20
43679;DHT22;29279;50.858;4.392;2023-05-02T09:08:06;18.90;95.70
43679;DHT22;29279;50.858;4.392;2023-05-02T09:10:34;18.80;95.80
43679;DHT22;29279;50.858;4.392;2023-05-02T09:13:35;18.70;95.70
43679;DHT22;29279;50.858;4.392;2023-05-02T09:18:39;19.10;95.00
43679;DHT22;29279;50.858;4.392;2023-05-02T09:21:16;19.30;94.50
43679;DHT22;29279;50.858;4.392;2023-05-02T09:23:47;19.30;94.50
43679;DHT22;29279;50.858;4.392;2023-05-02T09:26:23;19.40;94.20
43679;DHT22;29279;50.858;4.392;2023-05-02T09:28:52;19.70;94.70
43679;DHT22;29279;50.858;4.392;2023-05-02T09:31:23;20.10;94.10
43679;DHT22;29279;50.858;4.392;2023-05-02T09:33:51;20.50;93.20
43679;DHT22;29279;50.858;4.392;2023-05-02T09:36:19;20.80;93.00
43679;DHT22;29279;50.858;4.392;2023-05-02T09:38:46;21.10;92.60
43679;DHT22;29279;50.858;4.392;2023-05-02T09:41:12;21.10;91.90
43679;DHT22;29279;50.858;4.392;2023-05-02T09:43:38;21.10;92.20
43679;DHT22;29279;50.858;4.392;2023-05-02T09:46:09;21.30;91.40
43679;DHT22;29279;50.858;4.392;2023-05-02T09:48:51;21.30;91.10
43679;DHT22;29279;50.858;4.392;2023-05-02T09:51:18;20.90;91.20
43679;DHT22;29279;50.858;4.392;2023-05-02T09:53:44;20.80;91.50
43679;DHT22;29279;50.858;4.392;2023-05-02T09:56:10;20.90;91.40
43679;DHT22;29279;50.858;4.392;2023-05-02T09:58:36;21.00;90.70
43679;DHT22;29279;50.858;4.392;2023-05-02T10:01:02;21.10;90.60
43679;DHT22;29279;50.858;4.392;2023-05-02T10:03:28;21.30;90.20
43679;DHT22;29279;50.858;4.392;2023-05-02T10:05:55;21.80;88.80
43679;DHT22;29279;50.858;4.392;2023-05-02T10:08:23;22.20;87.20
43679;DHT22;29279;50.858;4.392;2023-05-02T10:10:56;22.60;87.10
43679;DHT22;29279;50.858;4.392;2023-05-02T10:13:24;23.40;85.80
43679;DHT22;29279;50.858;4.392;2023-05-02T10:16:03;24.40;84.80
43679;DHT22;29279;50.858;4.392;2023-05-02T10:21:03;25.50;80.80
43679;DHT22;29279;50.858;4.392;2023-05-02T10:23:30;25.70;79.10
43679;DHT22;29279;50.858;4.392;2023-05-02T10:25:58;25.50;77.20
43679;DHT22;29279;50.858;4.392;2023-05-02T10:28:25;25.80;76.60
43679;DHT22;29279;50.858;4.392;2023-05-02T10:30:52;25.20;76.10
43679;DHT22;29279;50.858;4.392;2023-05-02T10:33:20;24.80;76.60
43679;DHT22;29279;50.858;4.392;2023-05-02T10:35:46;25.80;76.40
43679;DHT22;29279;50.858;4.392;2023-05-02T10:38:20;27.00;75.50
43679;DHT22;29279;50.858;4.392;2023-05-02T10:40:56;27.40;71.10
43679;DHT22;29279;50.858;4.392;2023-05-02T10:43:24;27.30;70.60
43679;DHT22;29279;50.858;4.392;2023-05-02T10:45:52;26.70;70.80
43679;DHT22;29279;50.858;4.392;2023-05-02T10:48:23;25.80;71.30
43679;DHT22;29279;50.858;4.392;2023-05-02T10:53:23;23.80;73.20
43679;DHT22;29279;50.858;4.392;2023-05-02T10:56:15;23.10;74.80
43679;DHT22;29279;50.858;4.392;2023-05-02T10:58:43;23.90;75.00
43679;DHT22;29279;50.858;4.392;2023-05-02T11:06:22;23.40;74.50
43679;DHT22;29279;50.858;4.392;2023-05-02T11:08:47;23.70;74.00
43679;DHT22;29279;50.858;4.392;2023-05-02T11:11:42;23.40;74.00
43679;DHT22;29279;50.858;4.392;2023-05-02T11:14:09;23.30;74.70
43679;DHT22;29279;50.858;4.392;2023-05-02T11:19:24;24.00;74.00
43679;DHT22;29279;50.858;4.392;2023-05-02T11:21:50;25.80;72.80
43679;DHT22;29279;50.858;4.392;2023-05-02T11:30:06;26.50;69.80
43679;DHT22;29279;50.858;4.392;2023-05-02T11:35:21;25.80;68.90
43679;DHT22;29279;50.858;4.392;2023-05-02T11:38:01;25.10;68.80
43679;DHT22;29279;50.858;4.392;2023-05-02T11:40:28;24.40;69.80
43679;DHT22;29279;50.858;4.392;2023-05-02T11:42:55;24.80;70.60
43679;DHT22;29279;50.858;4.392;2023-05-02T11:45:21;25.70;70.20
43679;DHT22;29279;50.858;4.392;2023-05-02T11:47:49;25.50;69.90
43679;DHT22;29279;50.858;4.392;2023-05-02T11:50:16;25.20;69.50
43679;DHT22;29279;50.858;4.392;2023-05-02T11:52:43;24.80;68.90
43679;DHT22;29279;50.858;4.392;2023-05-02T11:55:14;24.80;69.40
43679;DHT22;29279;50.858;4.392;2023-05-02T11:57:40;24.50;69.50
43679;DHT22;29279;50.858;4.392;2023-05-02T12:00:07;24.90;69.70
43679;DHT22;29279;50.858;4.392;2023-05-02T12:02:43;25.60;68.50
43679;DHT22;29279;50.858;4.392;2023-05-02T12:05:13;26.80;68.50
43679;DHT22;29279;50.858;4.392;2023-05-02T12:07:44;28.30;66.70
43679;DHT22;29279;50.858;4.392;2023-05-02T12:10:11;27.70;65.40
43679;DHT22;29279;50.858;4.392;2023-05-02T12:12:37;26.80;65.30
43679;DHT22;29279;50.858;4.392;2023-05-02T12:15:08;25.60;66.90
43679;DHT22;29279;50.858;4.392;2023-05-02T12:17:38;25.20;67.50
43679;DHT22;29279;50.858;4.392;2023-05-02T12:20:05;26.50;66.10
43679;DHT22;29279;50.858;4.392;2023-05-02T12:22:32;26.30;66.10
43679;DHT22;29279;50.858;4.392;2023-05-02T12:24:58;26.60;65.40
43679;DHT22;29279;50.858;4.392;2023-05-02T12:27:24;27.60;65.30
43679;DHT22;29279;50.858;4.392;2023-05-02T12:29:50;28.10;65.50
43679;DHT22;29279;50.858;4.392;2023-05-02T12:32:31;28.60;65.40
43679;DHT22;29279;50.858;4.392;2023-05-02T12:34:58;28.40;64.50
43679;DHT22;29279;50.858;4.392;2023-05-02T12:37:25;28.40;63.50
43679;DHT22;29279;50.858;4.392;2023-05-02T12:39:51;28.00;62.30
43679;DHT22;29279;50.858;4.392;2023-05-02T12:42:20;26.40;62.70
43679;DHT22;29279;50.858;4.392;2023-05-02T12:44:51;25.20;63.10
43679;DHT22;29279;50.858;4.392;2023-05-02T12:47:17;24.10;64.90
43679;DHT22;29279;50.858;4.392;2023-05-02T12:49:57;24.50;65.50
43679;DHT22;29279;50.858;4.392;2023-05-02T12:52:48;26.30;64.40
43679;DHT22;29279;50.858;4.392;2023-05-02T12:55:22;28.00;62.20
43679;DHT22;29279;50.858;4.392;2023-05-02T12:57:59;28.90;61.40
43679;DHT22;29279;50.858;4.392;2023-05-02T13:00:25;29.60;60.80
43679;DHT22;29279;50.858;4.392;2023-05-02T13:02:54;30.40;59.00
43679;DHT22;29279;50.858;4.392;2023-05-02T13:05:20;30.70;58.50
43679;DHT22;29279;50.858;4.392;2023-05-02T13:07:46;31.20;57.60
43679;DHT22;29279;50.858;4.392;2023-05-02T13:10:12;30.80;57.50
43679;DHT22;29279;50.858;4.392;2023-05-02T13:12:38;30.80;57.40
43679;DHT22;29279;50.858;4.392;2023-05-02T13:15:05;31.00;57.50
43679;DHT22;29279;50.858;4.392;2023-05-02T13:17:32;30.80;56.90
43679;DHT22;29279;50.858;4.392;2023-05-02T13:19:58;30.80;57.70
43679;DHT22;29279;50.858;4.392;2023-05-02T13:22:24;30.80;55.70
43679;DHT22;29279;50.858;4.392;2023-05-02T13:24:50;30.90;55.90
43679;DHT22;29279;50.858;4.392;2023-05-02T13:27:16;30.90;55.40
43679;DHT22;29279;50.858;4.392;2023-05-02T13:29:45;31.20;55.10
43679;DHT22;29279;50.858;4.392;2023-05-02T13:32:11;29.70;55.80
43679;DHT22;29279;50.858;4.392;2023-05-02T13:34:37;29.90;55.70
43679;DHT22;29279;50.858;4.392;2023-05-02T13:37:03;30.50;55.30
43679;DHT22;29279;50.858;4.392;2023-05-02T13:39:28;30.60;55.40
43679;DHT22;29279;50.858;4.392;2023-05-02T13:41:54;30.90;55.60
43679;DHT22;29279;50.858;4.392;2023-05-02T13:44:20;31.50;54.50
43679;DHT22;29279;50.858;4.392;2023-05-02T13:46:45;30.10;54.30
43679;DHT22;29279;50.858;4.392;2023-05-02T13:49:12;30.00;54.50
43679;DHT22;29279;50.858;4.392;2023-05-02T13:51:38;30.70;54.80
43679;DHT22;29279;50.858;4.392;2023-05-02T13:54:03;30.80;53.80
43679;DHT22;29279;50.858;4.392;2023-05-02T13:56:29;31.10;53.90
43679;DHT22;29279;50.858;4.392;2023-05-02T13:58:55;30.90;53.70
43679;DHT22;29279;50.858;4.392;2023-05-02T14:01:21;30.70;54.30
43679;DHT22;29279;50.858;4.392;2023-05-02T14:03:47;30.60;52.80
43679;DHT22;29279;50.858;4.392;2023-05-02T14:06:13;30.30;53.10
43679;DHT22;29279;50.858;4.392;2023-05-02T14:08:39;29.60;53.40
43679;DHT22;29279;50.858;4.392;2023-05-02T14:11:04;27.90;54.50
43679;DHT22;29279;50.858;4.392;2023-05-02T14:13:30;26.90;56.10
43679;DHT22;29279;50.858;4.392;2023-05-02T14:15:56;26.70;57.00
43679;DHT22;29279;50.858;4.392;2023-05-02T14:18:23;26.90;56.50
43679;DHT22;29279;50.858;4.392;2023-05-02T14:20:51;27.30;56.50
43679;DHT22;29279;50.858;4.392;2023-05-02T14:23:17;27.60;56.20
43679;DHT22;29279;50.858;4.392;2023-05-02T14:25:42;27.80;55.80
43679;DHT22;29279;50.858;4.392;2023-05-02T14:28:08;27.80;55.20
43679;DHT22;29279;50.858;4.392;2023-05-02T14:30:34;27.20;54.80
43679;DHT22;29279;50.858;4.392;2023-05-02T14:32:59;27.20;55.30
43679;DHT22;29279;50.858;4.392;2023-05-02T14:35:25;27.30;54.80
43679;DHT22;29279;50.858;4.392;2023-05-02T14:37:51;27.30;55.30
43679;DHT22;29279;50.858;4.392;2023-05-02T14:40:16;27.40;55.60
43679;DHT22;29279;50.858;4.392;2023-05-02T14:42:42;27.40;54.90
43679;DHT22;29279;50.858;4.392;2023-05-02T14:45:08;27.40;55.30
43679;DHT22;29279;50.858;4.392;2023-05-02T14:47:35;27.30;56.60
43679;DHT22;29279;50.858;4.392;2023-05-02T14:50:02;27.10;56.50
43679;DHT22;29279;50.858;4.392;2023-05-02T14:52:28;26.80;55.90
43679;DHT22;29279;50.858;4.392;2023-05-02T14:54:54;26.50;55.90
43679;DHT22;29279;50.858;4.392;2023-05-02T14:57:20;26.30;56.40
43679;DHT22;29279;50.858;4.392;2023-05-02T14:59:46;26.20;56.40
43679;DHT22;29279;50.858;4.392;2023-05-02T15:02:11;25.80;56.70
43679;DHT22;29279;50.858;4.392;2023-05-02T15:04:37;25.80;56.00
43679;DHT22;29279;50.858;4.392;2023-05-02T15:07:03;25.50;57.00
43679;DHT22;29279;50.858;4.392;2023-05-02T15:09:29;24.80;57.30
43679;DHT22;29279;50.858;4.392;2023-05-02T15:11:55;24.40;58.00
43679;DHT22;29279;50.858;4.392;2023-05-02T15:14:21;24.20;59.10
43679;DHT22;29279;50.858;4.392;2023-05-02T15:16:47;24.20;58.40
43679;DHT22;29279;50.858;4.392;2023-05-02T15:19:12;24.30;58.90
43679;DHT22;29279;50.858;4.392;2023-05-02T15:21:38;24.20;58.70
43679;DHT22;29279;50.858;4.392;2023-05-02T15:24:04;24.20;58.10
43679;DHT22;29279;50.858;4.392;2023-05-02T15:26:30;24.10;58.30
43679;DHT22;29279;50.858;4.392;2023-05-02T15:28:57;23.70;59.10
43679;DHT22;29279;50.858;4.392;2023-05-02T15:31:22;23.50;59.40
43679;DHT22;29279;50.858;4.392;2023-05-02T15:33:49;23.50;59.00
43679;DHT22;29279;50.858;4.392;2023-05-02T15:36:14;23.60;58.90
43679;DHT22;29279;50.858;4.392;2023-05-02T15:38:40;23.30;60.10
43679;DHT22;29279;50.858;4.392;2023-05-02T15:41:08;23.00;59.50
43679;DHT22;29279;50.858;4.392;2023-05-02T15:43:34;22.60;60.50
43679;DHT22;29279;50.858;4.392;2023-05-02T15:46:01;22.60;60.50
43679;DHT22;29279;50.858;4.392;2023-05-02T15:48:30;22.60;62.30
43679;DHT22;29279;50.858;4.392;2023-05-02T15:50:59;22.90;60.10
43679;DHT22;29279;50.858;4.392;2023-05-02T15:53:26;22.80;59.90
43679;DHT22;29279;50.858;4.392;2023-05-02T15:55:51;22.70;59.80
43679;DHT22;29279;50.858;4.392;2023-05-02T15:58:18;22.70;59.90
43679;DHT22;29279;50.858;4.392;2023-05-02T16:00:44;22.70;59.90
43679;DHT22;29279;50.858;4.392;2023-05-02T16:03:12;22.70;59.50
43679;DHT22;29279;50.858;4.392;2023-05-02T16:05:38;22.50;60.30
43679;DHT22;29279;50.858;4.392;2023-05-02T16:08:04;22.50;60.00
43679;DHT22;29279;50.858;4.392;2023-05-02T16:10:30;22.40;60.40
43679;DHT22;29279;50.858;4.392;2023-05-02T16:12:56;22.40;60.40
43679;DHT22;29279;50.858;4.392;2023-05-02T16:15:22;22.40;60.40
43679;DHT22;29279;50.858;4.392;2023-05-02T16:17:49;22.30;60.30
43679;DHT22;29279;50.858;4.392;2023-05-02T16:20:16;22.20;60.70
43679;DHT22;29279;50.858;4.392;2023-05-02T16:22:46;22.30;60.90
43679;DHT22;29279;50.858;4.392;2023-05-02T16:25:13;22.20;59.90